Hallettsville, Texas
Current Conditions -  °F | °C
As of 2:35 AM on Saturday 20 Dec 2014 (Local Time) from K66R Reporting Station
Overcast Overcast  
Wind Chill: 50°   Ceiling: 1000
Heat Index: 50°   Visibility: 10mi
Dew Point: 48°   Wind: 7mph
Humidity: 92%   Direction: 350°N
Pressure: 30.15"   Gusts: NA
Location:  29.44°N, 96.94°W
Report Text: K66R 200835Z AUTO 35006KT 10SM OVC010 10/09 A3015 RMK AO2 T01000087
Loading
Personal Weather Stations






























Interactive Weather Map New forecast layout! Learn more

10-Day Weather Forecast

Advertisements
Track Severe Weather on mobile